Time;durP1;ratioP1;P1;durP2;ratioP2;P2;SDS_P1;SDS_P2;PMS_P1;PMS_P2;Temp;Humidity;BMP_temperature;BMP_pressure;BME280_temperature;BME280_humidity;BME280_pressure;Samples;Min_cycle;Max_cycle;Signal;HPM_P1;HPM_P2
2022/05/14 00:01:21;;;;;;;;;7.25;5.00;;;;;16.73;45.83;101932.13;5000094;28;45385;-83
2022/05/14 00:03:47;;;;;;;;;7.00;3.50;;;;;16.72;46.06;101940.97;4994044;28;45579;-86
2022/05/14 00:06:16;;;;;;;;;6.75;6.75;;;;;16.70;45.89;101937.44;4984075;28;48001;-87
2022/05/14 00:08:42;;;;;;;;;4.00;4.00;;;;;16.70;46.21;101937.44;4999469;28;45472;-87
2022/05/14 00:13:52;;;;;;;;;4.50;4.50;;;;;16.68;46.53;101927.72;5000709;28;45360;-86
2022/05/14 00:16:20;;;;;;;;;4.00;3.75;;;;;16.65;46.17;101941.03;4983569;28;47348;-87
2022/05/14 00:18:46;;;;;;;;;6.00;5.00;;;;;16.63;46.28;101940.22;4983938;28;45281;-86
2022/05/14 00:21:13;;;;;;;;;3.00;3.00;;;;;16.61;46.33;101936.66;4984440;28;45313;-86
2022/05/14 00:23:38;;;;;;;;;4.25;3.00;;;;;16.61;46.75;101942.00;4999026;28;45270;-86
2022/05/14 00:26:04;;;;;;;;;5.75;4.00;;;;;16.59;46.33;101941.13;4983040;28;48025;-86
2022/05/14 00:28:30;;;;;;;;;3.25;3.00;;;;;16.57;46.29;101945.56;4983256;28;45701;-86
2022/05/14 00:30:55;;;;;;;;;3.00;3.00;;;;;16.56;46.69;101938.50;5003499;28;45509;-86
2022/05/14 00:33:22;;;;;;;;;5.00;5.00;;;;;16.53;46.58;101940.28;5001462;28;45341;-87
2022/05/14 00:35:47;;;;;;;;;5.50;5.25;;;;;16.51;46.64;101944.72;5014038;28;45406;-85
2022/05/14 00:38:13;;;;;;;;;3.25;3.25;;;;;16.50;46.60;101934.13;5005842;28;45431;-86
2022/05/14 00:40:46;;;;;;;;;5.75;4.50;;;;;16.48;46.68;101928.78;5002196;28;45229;-86
2022/05/14 00:43:13;;;;;;;;;7.75;5.75;;;;;16.46;46.50;101935.91;4983795;28;45569;-87
2022/05/14 00:45:41;;;;;;;;;4.25;4.00;;;;;16.47;46.86;101939.47;4984331;28;47288;-86
2022/05/14 00:48:11;;;;;;;;;5.00;5.00;;;;;16.45;47.26;101931.50;5001701;28;45226;-86
2022/05/14 00:50:47;;;;;;;;;8.00;7.00;;;;;16.43;47.82;101927.94;4984526;28;45425;-86
2022/05/14 00:53:20;;;;;;;;;9.50;7.00;;;;;16.44;47.49;101918.19;5002566;28;45536;-87
2022/05/14 00:55:49;;;;;;;;;9.50;8.00;;;;;16.40;47.58;101921.78;4983431;28;47156;-86
2022/05/14 00:58:34;;;;;;;;;5.00;4.50;;;;;16.41;48.01;101923.53;5001709;28;45372;-86
2022/05/14 01:01:00;;;;;;;;;6.00;5.00;;;;;16.42;48.05;101928.84;4975899;28;45282;-87
2022/05/14 01:03:25;;;;;;;;;5.00;5.00;;;;;16.38;48.11;101920.91;5003484;28;45316;-86
2022/05/14 01:05:53;;;;;;;;;8.00;6.75;;;;;16.34;48.21;101914.75;5002301;28;47191;-86
2022/05/14 01:08:19;;;;;;;;;5.75;5.75;;;;;16.34;48.08;101919.19;4984723;28;45829;-87
2022/05/14 01:10:49;;;;;;;;;5.75;5.00;;;;;16.32;48.23;101928.03;4985258;28;45382;-87
2022/05/14 01:13:15;;;;;;;;;6.25;5.50;;;;;16.28;48.31;101915.69;4984861;28;45803;-87
2022/05/14 01:15:51;;;;;;;;;6.50;5.25;;;;;16.26;48.52;101914.81;4986877;28;47222;-87
2022/05/14 01:18:20;;;;;;;;;10.00;8.25;;;;;16.24;48.38;101907.75;4988722;28;45291;-86
2022/05/14 01:20:53;;;;;;;;;6.50;6.50;;;;;16.23;48.73;101920.16;4988531;28;45448;-87
2022/05/14 01:26:27;;;;;;;;;8.00;7.00;;;;;16.14;48.76;101909.59;5005677;28;45433;-86
2022/05/14 01:26:29;;;;;;;;;9.25;7.00;;;;;16.11;48.90;101909.63;5004675;28;46640;-87
2022/05/14 01:29:21;;;;;;;;;5.50;5.50;;;;;16.11;48.82;101906.97;4988082;28;45242;-87
2022/05/14 01:31:49;;;;;;;;;7.00;5.50;;;;;16.08;49.11;101921.16;4980215;28;45492;-88
2022/05/14 01:34:25;;;;;;;;;8.00;7.50;;;;;16.05;49.22;101910.56;4988175;28;45274;-86
2022/05/14 01:36:52;;;;;;;;;3.50;3.50;;;;;16.02;49.03;101912.38;4988038;28;46338;-87
2022/05/14 01:39:18;;;;;;;;;7.75;7.00;;;;;15.98;49.41;101911.47;4988997;28;45923;-87
2022/05/14 01:41:44;;;;;;;;;7.75;7.75;;;;;15.98;49.54;101911.47;4988648;28;45358;-87
2022/05/14 01:44:10;;;;;;;;;7.50;6.50;;;;;15.95;49.10;101907.97;5004810;28;45256;-86
2022/05/14 01:46:35;;;;;;;;;8.50;8.00;;;;;15.90;49.31;101910.66;5005198;28;46192;-87
2022/05/14 01:49:01;;;;;;;;;8.75;6.25;;;;;15.87;49.26;101914.22;4987504;28;45957;-87
2022/05/14 01:51:28;;;;;;;;;9.00;8.00;;;;;15.84;49.65;101905.41;5006741;28;45365;-86
2022/05/14 01:53:54;;;;;;;;;10.50;10.00;;;;;15.81;49.57;101905.44;5000211;28;45392;-87
2022/05/14 01:56:20;;;;;;;;;11.00;11.00;;;;;15.79;50.07;101900.13;4988274;28;47233;-87
2022/05/14 01:58:45;;;;;;;;;10.00;8.00;;;;;15.79;50.28;101904.56;4987749;28;45820;-86
2022/05/14 02:01:18;;;;;;;;;7.00;7.00;;;;;15.79;50.47;101901.91;5004549;28;45155;-87
2022/05/14 02:03:47;;;;;;;;;7.50;7.00;;;;;15.78;50.48;101897.50;4987739;28;45307;-87
2022/05/14 02:06:14;;;;;;;;;6.75;6.25;;;;;15.76;50.67;101899.25;4988684;28;46991;-87
2022/05/14 02:08:40;;;;;;;;;12.00;10.00;;;;;15.74;50.49;101895.72;5007181;28;45473;-87
2022/05/14 02:11:07;;;;;;;;;8.25;8.25;;;;;15.74;50.71;101895.72;5006194;28;45439;-88
2022/05/14 02:13:33;;;;;;;;;6.00;6.00;;;;;15.70;50.51;101888.69;5002620;28;45512;-88
2022/05/14 02:15:58;;;;;;;;;8.50;7.25;;;;;15.66;50.75;101887.78;5008721;28;45310;-86
2022/05/14 02:18:24;;;;;;;;;8.25;8.25;;;;;15.62;50.42;101891.34;5006701;28;45253;-86
2022/05/14 02:20:50;;;;;;;;;6.50;6.00;;;;;15.59;51.12;101889.59;4988295;28;45273;-86
2022/05/14 02:23:16;;;;;;;;;8.25;7.25;;;;;15.59;50.73;101896.69;5004408;28;45190;-87
2022/05/14 02:25:42;;;;;;;;;10.00;8.75;;;;;15.51;50.93;101886.13;4987131;28;47202;-86
2022/05/14 02:28:08;;;;;;;;;8.25;7.25;;;;;15.52;51.03;101889.66;4986113;28;45262;-87
2022/05/14 02:30:33;;;;;;;;;6.25;6.25;;;;;15.46;51.17;101885.25;4987110;28;45378;-86
2022/05/14 02:32:59;;;;;;;;;8.50;8.50;;;;;15.46;51.39;101889.69;5004708;28;45440;-86
2022/05/14 02:35:25;;;;;;;;;11.25;11.00;;;;;15.45;51.60;101888.81;5005679;28;46602;-86
2022/05/14 02:37:51;;;;;;;;;10.25;10.25;;;;;15.44;51.62;101890.56;5004080;28;45322;-87
2022/05/14 02:40:16;;;;;;;;;9.00;6.00;;;;;15.45;51.59;101891.47;5006409;28;45368;-85
2022/05/14 02:42:42;;;;;;;;;7.00;7.00;;;;;15.47;51.44;101888.78;4987289;28;45887;-86
2022/05/14 02:45:08;;;;;;;;;9.25;9.25;;;;;15.46;51.25;101902.97;5006069;28;45406;-87
2022/05/14 02:47:34;;;;;;;;;9.00;9.00;;;;;15.44;51.25;101901.16;4987176;28;45251;-88
2022/05/14 02:49:59;;;;;;;;;11.75;9.25;;;;;15.41;51.75;101898.53;5004878;28;45210;-87
2022/05/14 02:52:27;;;;;;;;;6.75;6.75;;;;;15.44;51.58;101903.81;4987763;28;45698;-87
2022/05/14 02:54:53;;;;;;;;;8.25;7.00;;;;;15.44;51.47;101903.81;5005393;28;46375;-87
2022/05/14 02:57:18;;;;;;;;;8.25;8.25;;;;;15.49;51.54;101905.59;4974929;28;45455;-87
2022/05/14 02:59:44;;;;;;;;;9.00;8.00;;;;;15.48;51.42;101895.88;5004891;28;45356;-87
2022/05/14 03:02:10;;;;;;;;;8.00;7.00;;;;;15.49;51.17;101903.81;5005812;28;45409;-86
2022/05/14 03:04:37;;;;;;;;;8.50;8.50;;;;;15.50;51.39;101902.03;5008834;28;45215;-85
2022/05/14 03:07:09;;;;;;;;;10.75;8.75;;;;;15.51;51.52;101906.47;4992419;28;45784;-87
2022/05/14 03:09:36;;;;;;;;;6.50;6.25;;;;;15.50;51.39;101900.25;5010975;28;44809;-86
2022/05/14 03:12:02;;;;;;;;;12.25;12.00;;;;;15.49;51.59;101903.81;4979963;28;44810;-87
2022/05/14 03:14:28;;;;;;;;;12.25;9.25;;;;;15.47;51.48;101897.63;4989907;28;48363;-86
2022/05/14 03:16:54;;;;;;;;;10.25;8.25;;;;;15.43;51.56;101891.47;4977188;28;45303;-87
2022/05/14 03:19:20;;;;;;;;;12.00;11.00;;;;;15.41;51.63;101893.22;4972589;28;45214;-87
2022/05/14 03:21:45;;;;;;;;;9.00;9.00;;;;;15.44;51.55;101897.66;5001268;28;45330;-87
2022/05/14 03:24:12;;;;;;;;;11.50;11.00;;;;;15.40;51.42;101891.47;5002926;28;46327;-86
2022/05/14 03:26:38;;;;;;;;;9.50;9.50;;;;;15.40;51.83;101901.22;5004740;28;45182;-88
2022/05/14 03:29:04;;;;;;;;;9.75;9.75;;;;;15.33;51.76;101895.03;4986480;28;45467;-86
2022/05/14 03:31:31;;;;;;;;;12.25;11.00;;;;;15.30;51.62;101891.53;4986639;28;45793;-86
2022/05/14 03:33:57;;;;;;;;;10.75;7.75;;;;;15.32;51.91;101903.03;4986451;28;47059;-88
2022/05/14 03:36:23;;;;;;;;;11.50;10.50;;;;;15.27;51.73;101899.50;4999067;28;46280;-87
2022/05/14 03:38:49;;;;;;;;;13.75;12.50;;;;;15.25;51.93;101896.84;4986010;28;45262;-86
2022/05/14 03:41:17;;;;;;;;;10.25;9.00;;;;;15.27;52.08;101891.56;4986715;28;45321;-86
2022/05/14 03:43:44;;;;;;;;;11.25;11.25;;;;;15.29;52.30;101900.38;4986725;28;46841;-88
2022/05/14 03:46:09;;;;;;;;;9.25;8.75;;;;;15.26;52.36;101889.78;4986798;28;45492;-86
2022/05/14 03:48:36;;;;;;;;;14.00;10.50;;;;;15.27;52.01;101896.88;4987603;28;45276;-88
2022/05/14 03:51:02;;;;;;;;;10.00;9.00;;;;;15.25;52.39;101901.28;4986953;28;45450;-87
2022/05/14 03:53:28;;;;;;;;;11.50;10.75;;;;;15.21;52.67;101895.13;5004975;28;46208;-86
2022/05/14 03:55:53;;;;;;;;;11.75;10.50;;;;;15.22;52.90;101897.75;4993978;28;45349;-87
2022/05/14 03:58:19;;;;;;;;;12.75;12.75;;;;;15.21;52.72;101896.00;4987363;28;45264;-86
2022/05/14 04:00:44;;;;;;;;;13.75;12.00;;;;;15.20;52.74;101886.25;4988480;28;45282;-87
2022/05/14 04:03:10;;;;;;;;;14.00;12.00;;;;;15.20;52.93;101894.22;5007799;28;45299;-87
2022/05/14 04:05:36;;;;;;;;;12.50;11.00;;;;;15.16;52.84;101886.31;5007916;28;45142;-86
2022/05/14 04:08:02;;;;;;;;;11.00;10.00;;;;;15.18;52.90;101893.38;4971251;28;45353;-86
2022/05/14 04:10:29;;;;;;;;;11.75;10.25;;;;;15.16;52.99;101895.13;4990449;28;45647;-87
2022/05/14 04:12:55;;;;;;;;;13.50;10.50;;;;;15.10;52.69;101892.50;4989631;28;47335;-86
2022/05/14 04:15:23;;;;;;;;;9.75;9.75;;;;;15.08;52.90;101898.72;5007064;28;45265;-87
2022/05/14 04:17:50;;;;;;;;;11.50;9.50;;;;;15.08;53.23;101901.38;5000004;28;45185;-86
2022/05/14 04:20:15;;;;;;;;;8.25;8.00;;;;;15.03;53.11;101895.19;5007292;28;45515;-86
2022/05/14 04:22:41;;;;;;;;;11.00;9.00;;;;;15.06;52.99;101905.78;4982574;28;46981;-87
2022/05/14 04:25:07;;;;;;;;;10.50;8.25;;;;;15.08;53.24;101901.38;5005157;28;45252;-86
2022/05/14 04:27:33;;;;;;;;;9.00;8.50;;;;;15.06;53.52;101903.13;4986553;28;45235;-86
2022/05/14 04:29:59;;;;;;;;;9.25;9.25;;;;;15.02;53.41;101901.38;4984759;28;45359;-86
2022/05/14 04:32:24;;;;;;;;;9.25;8.00;;;;;15.00;53.75;101902.25;4995858;28;46885;-86
2022/05/14 04:34:50;;;;;;;;;9.25;8.25;;;;;15.01;53.73;101895.19;5002222;28;45460;-85
2022/05/14 04:37:15;;;;;;;;;8.00;8.00;;;;;15.02;53.74;101904.88;5001214;28;45420;-86
2022/05/14 04:39:41;;;;;;;;;9.00;9.00;;;;;15.04;53.81;101907.56;5003206;28;45479;-85
2022/05/14 04:42:09;;;;;;;;;8.50;8.50;;;;;15.06;54.07;101911.09;4985468;28;47435;-86
2022/05/14 04:44:36;;;;;;;;;9.25;9.00;;;;;15.04;53.71;101905.78;5003113;28;45262;-84
2022/05/14 04:47:04;;;;;;;;;8.50;8.50;;;;;15.02;53.80;101910.19;4985317;28;45246;-85
2022/05/14 04:49:30;;;;;;;;;12.00;12.00;;;;;14.98;53.99;101911.97;4985623;28;45355;-86
2022/05/14 04:51:56;;;;;;;;;11.50;10.00;;;;;14.98;54.28;101911.09;4989554;28;47619;-85
2022/05/14 04:54:22;;;;;;;;;10.00;9.00;;;;;15.00;54.27;101914.66;4989179;28;45365;-85
2022/05/14 04:56:48;;;;;;;;;14.25;14.00;;;;;14.98;54.47;101921.72;5002199;28;45334;-85
2022/05/14 04:59:14;;;;;;;;;12.00;10.25;;;;;14.94;54.93;101914.63;4983724;28;45200;-85
2022/05/14 05:03:16;;;;;;;;;11.00;10.25;;;;;14.90;54.35;101913.78;4993294;28;47333;-85
2022/05/14 05:04:34;;;;;;;;;10.50;9.25;;;;;14.86;54.82;101914.69;5005881;28;45293;-86
2022/05/14 05:07:00;;;;;;;;;9.00;9.00;;;;;14.88;54.57;101912.03;5005572;28;45275;-84
2022/05/14 05:09:26;;;;;;;;;12.00;10.50;;;;;14.87;54.55;101908.50;4986578;28;45507;-85
2022/05/14 05:11:51;;;;;;;;;11.75;11.75;;;;;14.84;54.70;101902.31;4986617;28;47912;-85
2022/05/14 05:14:17;;;;;;;;;9.75;9.25;;;;;14.87;54.98;101902.31;4986168;28;45271;-85
2022/05/14 05:16:43;;;;;;;;;12.75;12.00;;;;;14.89;54.72;101908.47;4986811;28;45286;-84
2022/05/14 05:19:08;;;;;;;;;12.75;12.00;;;;;14.94;54.77;101918.22;5003024;28;45654;-85
2022/05/14 05:21:34;;;;;;;;;10.50;9.50;;;;;14.95;54.78;101919.09;5001167;28;46802;-85
2022/05/14 05:24:01;;;;;;;;;11.00;10.75;;;;;14.95;54.98;101919.97;4986190;28;45448;-87
2022/05/14 05:26:27;;;;;;;;;13.25;13.25;;;;;14.98;54.97;101919.06;4989771;28;45456;-89
2022/05/14 05:28:53;;;;;;;;;11.75;9.25;;;;;15.00;54.83;101919.94;4993609;28;45433;-85
2022/05/14 05:31:19;;;;;;;;;14.00;13.00;;;;;15.06;54.99;101927.00;5004556;28;47199;-87
2022/05/14 05:33:44;;;;;;;;;11.50;10.50;;;;;15.08;54.91;101928.75;5003824;28;44653;-89
2022/05/14 05:36:10;;;;;;;;;12.00;11.25;;;;;15.10;54.87;101924.34;5006531;28;45247;-88
2022/05/14 05:38:37;;;;;;;;;16.50;12.75;;;;;15.12;54.76;101917.25;5008071;28;44976;-87
2022/05/14 05:41:03;;;;;;;;;11.75;11.75;;;;;15.14;54.62;101927.84;5006744;28;47316;-89
2022/05/14 05:43:29;;;;;;;;;11.50;10.75;;;;;15.15;54.66;101925.19;5008384;28;44846;-88
2022/05/14 05:45:56;;;;;;;;;14.00;12.75;;;;;15.17;54.91;101922.53;5003107;28;45476;-85
2022/05/14 05:48:22;;;;;;;;;14.75;14.25;;;;;15.24;54.64;101929.59;5007981;28;45473;-88
2022/05/14 05:50:48;;;;;;;;;17.25;16.25;;;;;15.23;54.50;101927.81;4991078;28;47280;-88
2022/05/14 05:53:16;;;;;;;;;11.50;11.50;;;;;15.29;54.26;101930.47;5009298;28;44601;-86
2022/05/14 05:58:26;;;;;;;;;12.75;12.25;;;;;15.37;54.26;101928.66;5023070;28;45178;-88
2022/05/14 06:00:52;;;;;;;;;14.75;12.75;;;;;15.44;53.51;101937.44;5001951;28;47090;-89
2022/05/14 06:03:17;;;;;;;;;15.00;13.75;;;;;15.44;54.33;101927.72;4999278;28;45159;-88
2022/05/14 06:05:44;;;;;;;;;13.00;11.50;;;;;15.48;53.88;101925.94;5000864;28;45192;-90
2022/05/14 06:08:12;;;;;;;;;12.50;12.25;;;;;15.56;53.74;101934.75;5001298;28;45328;-87
2022/05/14 06:10:39;;;;;;;;;14.00;12.25;;;;;15.58;53.80;101935.63;5003926;28;46860;-87
2022/05/14 06:13:09;;;;;;;;;12.00;10.00;;;;;15.64;53.68;101937.38;4997543;28;45273;-90
2022/05/14 06:15:36;;;;;;;;;12.25;11.00;;;;;15.70;53.46;101934.69;5005616;28;45191;-86
2022/05/14 06:18:03;;;;;;;;;11.25;9.50;;;;;15.77;52.63;101939.09;5001222;28;45334;-89
2022/05/14 06:20:28;;;;;;;;;7.00;5.75;;;;;15.82;52.31;101942.59;5005695;28;45161;-89
2022/05/14 06:22:54;;;;;;;;;5.25;5.25;;;;;15.86;51.14;101949.66;5013493;28;45719;-90
2022/05/14 06:25:19;;;;;;;;;5.50;4.50;;;;;15.90;50.83;101946.97;5000669;28;45163;-87
2022/05/14 06:27:45;;;;;;;;;5.00;5.00;;;;;15.94;50.88;101948.72;5017227;28;44754;-88
2022/05/14 06:30:14;;;;;;;;;5.50;5.00;;;;;15.97;50.55;101948.69;5003708;28;47059;-88
2022/05/14 06:32:40;;;;;;;;;4.25;4.25;;;;;15.97;50.56;101946.03;5006068;28;44827;-89
2022/05/14 06:35:08;;;;;;;;;6.50;4.25;;;;;16.05;50.15;101952.19;5020727;28;45344;-88
2022/05/14 06:37:34;;;;;;;;;5.75;4.50;;;;;16.07;50.05;101950.41;5024003;28;44778;-87
2022/05/14 06:40:00;;;;;;;;;4.00;4.00;;;;;16.08;49.70;101955.69;5002595;28;45373;-88
2022/05/14 06:42:28;;;;;;;;;8.25;6.00;;;;;16.12;49.96;101950.34;5013484;28;45135;-87
2022/05/14 06:44:54;;;;;;;;;4.50;3.75;;;;;16.16;49.70;101947.66;4995236;28;44802;-88
2022/05/14 06:47:20;;;;;;;;;5.50;5.50;;;;;16.22;49.54;101944.94;4988593;28;45437;-89
2022/05/14 06:49:46;;;;;;;;;6.00;6.00;;;;;16.29;49.70;101944.03;4986854;28;47190;-89
2022/05/14 06:52:16;;;;;;;;;4.00;4.00;;;;;16.31;49.32;101952.00;5003222;28;45714;-86
2022/05/14 06:54:45;;;;;;;;;4.00;3.50;;;;;16.36;49.09;101943.97;4984532;28;45369;-88
2022/05/14 06:57:12;;;;;;;;;6.25;5.25;;;;;16.41;48.78;101944.81;4984655;28;45549;-87
2022/05/14 06:59:38;;;;;;;;;5.00;5.00;;;;;16.45;48.55;101958.06;5001587;28;45617;-85
2022/05/14 07:02:10;;;;;;;;;4.50;4.50;;;;;16.45;48.44;101950.09;5003068;28;45298;-84
2022/05/14 07:07:20;;;;;;;;;4.75;3.50;;;;;16.60;48.48;101953.50;5008701;28;45212;-86
2022/05/14 07:09:45;;;;;;;;;3.67;3.67;;;;;16.66;48.46;101957.00;4988142;28;47888;-88
2022/05/14 07:12:12;;;;;;;;;3.00;3.00;;;;;16.71;48.23;101955.19;5001426;28;44729;-89
2022/05/14 07:14:43;;;;;;;;;6.75;5.00;;;;;16.76;47.84;101953.34;4997797;28;45363;-89
2022/05/14 07:17:09;;;;;;;;;4.00;4.00;;;;;16.81;47.65;101949.78;5003115;28;45407;-89
2022/05/14 07:19:36;;;;;;;;;2.50;1.00;;;;;16.87;47.95;101942.66;5001049;28;45417;-88
2022/05/14 07:22:02;;;;;;;;;4.25;4.00;;;;;16.98;47.62;101946.06;4980563;28;44908;-89
2022/05/14 07:24:29;;;;;;;;;6.75;5.75;;;;;17.02;47.36;101935.38;4983906;28;45463;-89
2022/05/14 07:26:57;;;;;;;;;4.75;3.75;;;;;17.11;47.25;101940.63;4975606;28;45203;-89
2022/05/14 07:29:24;;;;;;;;;4.25;4.25;;;;;17.18;47.23;101943.16;4980007;28;47108;-90
2022/05/14 07:31:53;;;;;;;;;5.00;4.00;;;;;17.21;46.77;101931.59;4986362;28;46076;-87
2022/05/14 07:34:20;;;;;;;;;4.00;4.00;;;;;17.26;46.77;101936.88;5007711;28;45271;-89
2022/05/14 07:37:01;;;;;;;;;3.00;3.00;;;;;17.34;46.44;101927.88;5003074;28;45386;-89
2022/05/14 07:39:33;;;;;;;;;3.00;3.00;;;;;17.40;46.52;101929.59;4991015;28;46804;-89
2022/05/14 07:42:01;;;;;;;;;3.25;3.25;;;;;17.46;45.92;101929.53;4986940;28;45610;-89
2022/05/14 07:44:32;;;;;;;;;3.00;3.00;;;;;17.52;46.04;101925.91;4999905;28;45426;-89
2022/05/14 07:47:01;;;;;;;;;2.67;2.67;;;;;17.60;46.00;101922.22;4984340;28;45375;-90
2022/05/14 07:49:27;;;;;;;;;6.50;5.00;;;;;17.70;45.87;101922.09;4982888;28;47905;-84
2022/05/14 07:51:54;;;;;;;;;5.75;5.25;;;;;17.78;45.73;101923.75;4984240;28;45449;-83
2022/05/14 07:54:21;;;;;;;;;3.75;3.75;;;;;17.84;45.63;101921.00;4983533;28;45607;-83
2022/05/14 07:56:47;;;;;;;;;6.25;6.25;;;;;17.92;45.47;101928.03;4980968;28;45281;-83
2022/05/14 07:59:15;;;;;;;;;8.75;6.25;;;;;17.97;45.70;101918.19;4982296;28;47330;-83
2022/05/14 08:01:41;;;;;;;;;7.00;5.00;;;;;18.07;44.83;101926.00;4982688;28;45444;-83
2022/05/14 08:04:07;;;;;;;;;3.00;3.00;;;;;18.17;45.07;101921.38;5000673;28;45450;-82
2022/05/14 08:06:35;;;;;;;;;6.75;5.50;;;;;18.21;44.77;101908.91;4982976;28;45452;-86
2022/05/14 08:09:01;;;;;;;;;8.00;6.25;;;;;18.30;44.64;101908.72;4975257;28;47263;-86
2022/05/14 08:11:27;;;;;;;;;7.50;6.50;;;;;18.41;44.27;101913.88;4991330;28;45436;-87
2022/05/14 08:13:54;;;;;;;;;6.00;6.00;;;;;18.48;44.47;101918.22;4983298;28;45373;-87
2022/05/14 08:16:21;;;;;;;;;5.75;5.00;;;;;18.57;44.21;101919.81;5001471;28;45484;-86
2022/05/14 08:18:46;;;;;;;;;6.50;5.00;;;;;18.68;43.96;101917.84;4986182;28;46180;-86
2022/05/14 08:26:43;;;;;;;;;5.50;4.00;;;;;19.01;43.45;101920.81;5000174;28;45328;-87
2022/05/14 08:29:09;;;;;;;;;6.00;5.00;;;;;19.14;43.28;101911.66;4982562;28;48213;-86
2022/05/14 08:31:36;;;;;;;;;6.25;3.75;;;;;19.24;42.98;101917.66;5000061;28;45238;-87
2022/05/14 08:34:02;;;;;;;;;7.00;4.00;;;;;19.32;43.12;101913.03;4981857;28;45298;-85
2022/05/14 08:36:29;;;;;;;;;13.25;12.00;;;;;19.42;43.08;101913.72;4981710;28;45183;-86
2022/05/14 08:39:02;;;;;;;;;4.50;4.50;;;;;19.53;42.59;101919.72;4982550;28;46143;-86
2022/05/14 08:41:52;;;;;;;;;3.25;3.25;;;;;19.65;42.80;101918.56;4984677;28;45426;-86
2022/05/14 08:44:30;;;;;;;;;7.00;6.00;;;;;19.77;42.15;101915.63;4983519;28;45481;-85
2022/05/14 08:47:03;;;;;;;;;4.00;4.00;;;;;19.84;42.08;101914.59;4994378;28;45231;-85
2022/05/14 08:49:49;;;;;;;;;5.67;4.33;;;;;19.86;41.67;101904.75;4996702;28;47167;-85
2022/05/14 08:52:30;;;;;;;;;2.33;2.33;;;;;19.92;41.54;101907.25;4995268;28;45262;-86
2022/05/14 08:55:01;;;;;;;;;3.00;3.00;;;;;20.01;41.44;101906.16;4991178;28;45561;-86
2022/05/14 08:58:28;;;;;;;;;;;;;;;;;;;;;
2022/05/14 11:06:53;;;;;;;;;;;;;;;;;;;;;
2022/05/14 11:10:22;;;;;;;;;;;;;;;;;;;;;
2022/05/14 11:13:27;;;;;;;;;;;;;;;;;;;;;
2022/05/14 11:16:38;;;;;;;;;4.33;3.00;;;;;23.64;33.41;101815.75;5000340;28;71074;-87
2022/05/14 11:23:04;;;;;;;;;4.33;4.33;;;;;23.87;32.89;101800.47;4953215;28;45592;-86
2022/05/14 11:54:30;;;;;;;;;4.00;4.00;;;;;24.87;31.46;101765.50;4664563;30;45828;-84
2022/05/14 11:57:11;;;;;;;;;6.00;5.00;;;;;25.02;30.76;101771.09;4656617;30;45663;-83
2022/05/14 12:00:01;;;;;;;;;5.67;5.67;;;;;25.17;30.66;101772.22;4798375;29;45452;-84
2022/05/14 12:02:59;;;;;;;;;5.67;4.67;;;;;25.26;30.53;101764.56;4960178;28;45559;-83
2022/05/14 12:05:48;;;;;;;;;5.33;4.67;;;;;25.28;30.67;101765.34;4972002;28;45698;-87
2022/05/14 12:08:30;;;;;;;;;3.67;3.67;;;;;25.32;30.43;101760.69;5006085;28;45805;-86
2022/05/14 12:11:14;;;;;;;;;5.00;4.00;;;;;25.48;30.24;101764.38;5001367;28;45635;-84
2022/05/14 12:14:03;;;;;;;;;5.00;4.00;;;;;25.62;29.98;101757.41;5007383;28;45282;-85
2022/05/14 12:16:33;;;;;;;;;3.67;3.67;;;;;25.76;29.89;101762.97;5008854;28;48215;-84
2022/05/14 12:33:33;;;;;;;;;3.00;3.00;;;;;26.30;28.74;101739.47;4918576;28;45557;-87
2022/05/14 12:36:53;;;;;;;;;;;;;;;;;;;;;
2022/05/14 12:39:31;;;;;;;;;6.00;3.67;;;;;26.75;28.66;101739.75;5010854;28;73069;-86
2022/05/14 12:42:34;;;;;;;;;;;;;;;;;;;;;
2022/05/14 12:45:50;;;;;;;;;;;;;;;;;;;;;
2022/05/14 12:49:00;;;;;;;;;;;;;;;;;;;;;
2022/05/14 13:37:23;;;;;;;;;7.33;5.33;;;;;27.79;25.78;101657.94;4958557;28;45473;-83
2022/05/14 13:39:58;;;;;;;;;6.67;5.33;;;;;27.88;25.86;101652.00;4942934;28;45334;-85
2022/05/14 13:42:42;;;;;;;;;4.00;4.00;;;;;27.90;25.83;101652.75;4961278;28;47737;-83
2022/05/14 13:49:15;;;;;;;;;4.00;4.00;;;;;27.82;25.63;101646.09;5014444;28;45703;-85
2022/05/14 14:12:48;;;;;;;;;5.67;5.67;;;;;28.40;24.85;101628.00;4890752;29;44862;-86
2022/05/14 14:15:38;;;;;;;;;7.00;6.00;;;;;28.49;25.46;101624.72;4903194;28;45571;-88
2022/05/14 14:18:14;;;;;;;;;6.00;5.00;;;;;28.62;25.05;101632.91;4912257;28;45595;-88
2022/05/14 14:20:56;;;;;;;;;5.00;5.00;;;;;28.69;24.89;101618.88;4974520;28;47019;-87
2022/05/14 14:23:38;;;;;;;;;;;;;;;;;;;;;
2022/05/14 14:26:07;;;;;;;;;5.00;5.00;;;;;28.62;24.50;101611.25;5018763;28;69185;-89
2022/05/14 14:28:39;;;;;;;;;5.33;5.33;;;;;28.52;24.12;101617.28;5001701;28;45508;-89
2022/05/14 14:31:24;;;;;;;;;6.67;6.00;;;;;28.51;24.24;101610.09;4996097;28;48050;-85
2022/05/14 14:42:16;;;;;;;;;;;;;;;;;;;;;
2022/05/14 14:48:52;;;;;;;;;;;;;;;;;;;;;
2022/05/14 14:52:13;;;;;;;;;3.00;3.00;;;;;28.51;24.44;101583.00;4868259;29;68756;-86
2022/05/14 14:54:59;;;;;;;;;5.67;5.00;;;;;28.75;24.70;101577.78;4834118;29;45419;-85
2022/05/14 14:57:25;;;;;;;;;4.33;4.00;;;;;28.91;23.63;101580.34;4843537;29;46941;-84
2022/05/14 15:03:41;;;;;;;;;5.00;4.33;;;;;28.97;23.94;101566.34;4842289;29;45471;-89
2022/05/14 15:06:11;;;;;;;;;5.00;4.33;;;;;29.00;23.73;101566.19;4842687;29;45559;-89
2022/05/14 15:08:42;;;;;;;;;4.33;4.33;;;;;29.01;23.92;101567.03;4953455;28;47095;-89
2022/05/14 15:11:11;;;;;;;;;4.67;4.00;;;;;29.04;23.89;101556.00;5002996;28;45449;-89
2022/05/14 15:13:42;;;;;;;;;3.33;3.33;;;;;29.02;23.91;101566.91;5002593;28;45419;-89
2022/05/14 15:16:09;;;;;;;;;5.50;5.25;;;;;28.97;24.01;101560.94;5014718;28;45378;-86
2022/05/14 15:18:42;;;;;;;;;5.00;5.00;;;;;28.95;23.77;101562.91;5018143;28;46584;-87
2022/05/14 15:21:08;;;;;;;;;6.00;6.00;;;;;28.88;23.50;101561.56;5000931;28;45559;-87
2022/05/14 15:23:39;;;;;;;;;4.00;4.00;;;;;28.87;23.86;101561.66;4994989;28;45357;-87
2022/05/14 15:26:05;;;;;;;;;4.00;4.00;;;;;28.83;24.22;101558.31;5002098;28;45452;-85
2022/05/14 15:28:31;;;;;;;;;5.67;5.67;;;;;28.78;23.71;101552.31;5020472;28;45330;-86
2022/05/14 16:16:14;;;;;;;;;5.25;4.25;;;;;28.14;24.57;101536.63;5021953;22;45040;-82
2022/05/14 18:56:49;;;;;;;;;8.75;7.00;;;;;25.01;28.49;101483.75;4995104;28;45357;-84
2022/05/14 21:46:50;;;;;;;;;7.50;7.50;;;;;20.95;35.05;101452.16;4945928;28;45761;-87
